sensor_id;sensor_type;location;lat;lon;timestamp;pressure;altitude;pressure_sealevel;temperature;humidity
20077;BME280;12348;42.710;23.378;2022-12-16T00:01:04;95012.13;;;1.45;100.00
20077;BME280;12348;42.710;23.378;2022-12-16T00:03:31;94983.16;;;1.55;100.00
20077;BME280;12348;42.710;23.378;2022-12-16T00:05:58;94995.13;;;1.58;100.00
20077;BME280;12348;42.710;23.378;2022-12-16T00:08:28;95006.31;;;1.60;100.00
20077;BME280;12348;42.710;23.378;2022-12-16T00:10:56;95011.94;;;1.63;100.00
20077;BME280;12348;42.710;23.378;2022-12-16T00:13:23;94999.16;;;1.60;100.00
20077;BME280;12348;42.710;23.378;2022-12-16T00:15:50;94997.66;;;1.64;100.00
20077;BME280;12348;42.710;23.378;2022-12-16T00:18:20;94995.66;;;1.72;100.00
20077;BME280;12348;42.710;23.378;2022-12-16T00:20:48;95005.31;;;1.78;100.00
20077;BME280;12348;42.710;23.378;2022-12-16T00:23:15;94999.28;;;1.82;100.00
20077;BME280;12348;42.710;23.378;2022-12-16T00:25:42;95005.75;;;1.86;100.00
20077;BME280;12348;42.710;23.378;2022-12-16T00:28:09;94983.69;;;1.86;100.00
20077;BME280;12348;42.710;23.378;2022-12-16T00:30:36;94997.69;;;1.81;100.00
20077;BME280;12348;42.710;23.378;2022-12-16T00:33:03;94999.69;;;1.74;100.00
20077;BME280;12348;42.710;23.378;2022-12-16T00:35:31;94992.97;;;1.83;100.00
20077;BME280;12348;42.710;23.378;2022-12-16T00:37:58;94980.50;;;1.84;100.00
20077;BME280;12348;42.710;23.378;2022-12-16T00:40:25;95010.63;;;1.78;100.00
20077;BME280;12348;42.710;23.378;2022-12-16T00:42:52;95015.13;;;1.77;100.00
20077;BME280;12348;42.710;23.378;2022-12-16T00:45:19;95009.59;;;1.79;100.00
20077;BME280;12348;42.710;23.378;2022-12-16T00:47:48;94994.78;;;1.83;100.00
20077;BME280;12348;42.710;23.378;2022-12-16T00:50:16;94999.53;;;1.81;100.00
20077;BME280;12348;42.710;23.378;2022-12-16T00:52:44;94994.31;;;1.86;100.00
20077;BME280;12348;42.710;23.378;2022-12-16T00:55:11;94995.84;;;1.82;100.00
20077;BME280;12348;42.710;23.378;2022-12-16T00:57:38;94987.31;;;1.80;100.00
20077;BME280;12348;42.710;23.378;2022-12-16T01:00:06;94990.72;;;1.63;100.00
20077;BME280;12348;42.710;23.378;2022-12-16T01:02:38;94978.41;;;1.57;100.00
20077;BME280;12348;42.710;23.378;2022-12-16T01:05:05;94999.53;;;1.52;100.00
20077;BME280;12348;42.710;23.378;2022-12-16T01:07:32;95003.66;;;1.60;100.00
20077;BME280;12348;42.710;23.378;2022-12-16T01:10:00;95005.72;;;1.69;100.00
20077;BME280;12348;42.710;23.378;2022-12-16T01:12:27;94983.91;;;1.67;100.00
20077;BME280;12348;42.710;23.378;2022-12-16T01:14:54;94981.91;;;1.75;100.00
20077;BME280;12348;42.710;23.378;2022-12-16T01:17:22;94981.91;;;1.75;100.00
20077;BME280;12348;42.710;23.378;2022-12-16T01:19:50;94992.44;;;1.69;100.00
20077;BME280;12348;42.710;23.378;2022-12-16T01:22:17;94992.38;;;1.81;100.00
20077;BME280;12348;42.710;23.378;2022-12-16T01:24:44;94981.56;;;2.00;100.00
20077;BME280;12348;42.710;23.378;2022-12-16T01:27:12;94980.97;;;1.98;100.00
20077;BME280;12348;42.710;23.378;2022-12-16T01:29:40;94980.97;;;1.98;100.00
20077;BME280;12348;42.710;23.378;2022-12-16T01:32:11;94971.09;;;1.93;100.00
20077;BME280;12348;42.710;23.378;2022-12-16T01:34:38;94966.34;;;1.95;100.00
20077;BME280;12348;42.710;23.378;2022-12-16T01:37:05;94966.56;;;1.93;100.00
20077;BME280;12348;42.710;23.378;2022-12-16T01:39:32;94959.03;;;2.02;100.00
20077;BME280;12348;42.710;23.378;2022-12-16T01:41:59;94961.84;;;2.12;100.00
20077;BME280;12348;42.710;23.378;2022-12-16T01:44:27;94971.44;;;2.13;100.00
20077;BME280;12348;42.710;23.378;2022-12-16T01:46:55;94971.09;;;1.93;100.00
20077;BME280;12348;42.710;23.378;2022-12-16T01:49:26;94967.56;;;1.87;100.00
20077;BME280;12348;42.710;23.378;2022-12-16T01:51:54;94954.09;;;1.94;100.00
20077;BME280;12348;42.710;23.378;2022-12-16T01:54:25;94964.25;;;1.97;100.00
20077;BME280;12348;42.710;23.378;2022-12-16T01:56:57;94954.75;;;2.01;100.00
20077;BME280;12348;42.710;23.378;2022-12-16T01:59:28;94962.41;;;1.98;100.00
20077;BME280;12348;42.710;23.378;2022-12-16T02:01:57;94956.53;;;1.96;100.00
20077;BME280;12348;42.710;23.378;2022-12-16T02:04:24;94958.41;;;1.95;100.00
20077;BME280;12348;42.710;23.378;2022-12-16T02:06:51;94959.09;;;1.90;100.00
20077;BME280;12348;42.710;23.378;2022-12-16T02:09:18;94959.00;;;1.85;100.00
20077;BME280;12348;42.710;23.378;2022-12-16T02:11:58;94929.31;;;1.72;100.00
20077;BME280;12348;42.710;23.378;2022-12-16T02:14:54;94941.69;;;1.83;100.00
20077;BME280;12348;42.710;23.378;2022-12-16T02:17:30;94933.75;;;1.83;100.00
20077;BME280;12348;42.710;23.378;2022-12-16T02:20:17;94920.56;;;1.88;100.00
20077;BME280;12348;42.710;23.378;2022-12-16T02:23:04;94933.38;;;1.91;100.00
20077;BME280;12348;42.710;23.378;2022-12-16T02:25:51;94929.41;;;1.93;100.00
20077;BME280;12348;42.710;23.378;2022-12-16T02:28:35;94933.19;;;1.98;100.00
20077;BME280;12348;42.710;23.378;2022-12-16T02:31:17;94925.31;;;2.03;100.00
20077;BME280;12348;42.710;23.378;2022-12-16T02:33:54;94930.16;;;2.23;100.00
20077;BME280;12348;42.710;23.378;2022-12-16T02:36:36;94931.13;;;2.33;100.00
20077;BME280;12348;42.710;23.378;2022-12-16T02:39:12;94940.06;;;2.10;100.00
20077;BME280;12348;42.710;23.378;2022-12-16T02:41:43;94925.31;;;1.86;100.00
20077;BME280;12348;42.710;23.378;2022-12-16T02:44:13;94941.06;;;1.76;100.00
20077;BME280;12348;42.710;23.378;2022-12-16T02:46:50;94937.66;;;1.63;100.00
20077;BME280;12348;42.710;23.378;2022-12-16T02:49:45;94960.44;;;1.48;100.00
20077;BME280;12348;42.710;23.378;2022-12-16T02:52:13;94954.47;;;1.40;100.00
20077;BME280;12348;42.710;23.378;2022-12-16T02:54:40;94953.44;;;1.41;100.00
20077;BME280;12348;42.710;23.378;2022-12-16T02:57:16;94960.88;;;1.28;100.00
20077;BME280;12348;42.710;23.378;2022-12-16T02:59:55;94970.34;;;1.24;100.00
20077;BME280;12348;42.710;23.378;2022-12-16T03:02:30;94979.06;;;1.36;100.00
20077;BME280;12348;42.710;23.378;2022-12-16T03:05:04;94975.16;;;1.27;100.00
20077;BME280;12348;42.710;23.378;2022-12-16T03:07:34;94990.38;;;1.19;100.00
20077;BME280;12348;42.710;23.378;2022-12-16T03:10:05;94970.00;;;1.08;100.00
20077;BME280;12348;42.710;23.378;2022-12-16T03:12:34;94944.34;;;1.09;100.00
20077;BME280;12348;42.710;23.378;2022-12-16T03:15:05;94965.28;;;1.10;100.00
20077;BME280;12348;42.710;23.378;2022-12-16T03:17:36;94949.47;;;1.15;100.00
20077;BME280;12348;42.710;23.378;2022-12-16T03:20:08;94954.09;;;1.20;100.00
20077;BME280;12348;42.710;23.378;2022-12-16T03:22:40;94954.44;;;1.24;100.00
20077;BME280;12348;42.710;23.378;2022-12-16T03:25:09;94936.44;;;1.26;100.00
20077;BME280;12348;42.710;23.378;2022-12-16T03:27:41;94938.31;;;1.70;100.00
20077;BME280;12348;42.710;23.378;2022-12-16T03:30:14;94946.66;;;1.91;100.00
20077;BME280;12348;42.710;23.378;2022-12-16T03:32:47;94936.84;;;1.63;100.00
20077;BME280;12348;42.710;23.378;2022-12-16T03:35:19;94934.97;;;2.26;100.00
20077;BME280;12348;42.710;23.378;2022-12-16T03:37:51;94920.91;;;1.46;100.00
20077;BME280;12348;42.710;23.378;2022-12-16T03:40:20;94938.22;;;1.37;100.00
20077;BME280;12348;42.710;23.378;2022-12-16T03:42:48;94954.53;;;1.29;100.00
20077;BME280;12348;42.710;23.378;2022-12-16T03:45:17;94977.38;;;1.18;100.00
20077;BME280;12348;42.710;23.378;2022-12-16T03:47:49;94967.22;;;1.15;100.00
20077;BME280;12348;42.710;23.378;2022-12-16T03:50:18;94965.28;;;1.10;100.00
20077;BME280;12348;42.710;23.378;2022-12-16T03:52:46;94941.91;;;1.07;100.00
20077;BME280;12348;42.710;23.378;2022-12-16T03:55:13;94952.97;;;1.04;100.00
20077;BME280;12348;42.710;23.378;2022-12-16T03:57:40;94949.63;;;1.37;100.00
20077;BME280;12348;42.710;23.378;2022-12-16T04:00:08;94960.88;;;1.28;100.00
20077;BME280;12348;42.710;23.378;2022-12-16T04:02:35;94978.63;;;1.15;100.00
20077;BME280;12348;42.710;23.378;2022-12-16T04:05:04;94969.13;;;1.03;100.00
20077;BME280;12348;42.710;23.378;2022-12-16T04:07:31;94966.50;;;0.91;100.00
20077;BME280;12348;42.710;23.378;2022-12-16T04:09:58;94967.88;;;0.82;100.00
20077;BME280;12348;42.710;23.378;2022-12-16T04:12:25;94960.50;;;0.84;100.00
20077;BME280;12348;42.710;23.378;2022-12-16T04:15:10;94965.34;;;0.87;100.00
20077;BME280;12348;42.710;23.378;2022-12-16T04:17:54;94954.16;;;0.85;100.00
20077;BME280;12348;42.710;23.378;2022-12-16T04:20:43;94957.16;;;0.88;100.00
20077;BME280;12348;42.710;23.378;2022-12-16T04:23:29;94958.28;;;0.92;100.00
20077;BME280;12348;42.710;23.378;2022-12-16T04:26:15;94959.44;;;0.96;100.00
20077;BME280;12348;42.710;23.378;2022-12-16T04:28:43;94957.13;;;1.00;100.00
20077;BME280;12348;42.710;23.378;2022-12-16T04:31:10;94955.16;;;1.07;100.00
20077;BME280;12348;42.710;23.378;2022-12-16T04:33:37;94960.31;;;1.14;100.00
20077;BME280;12348;42.710;23.378;2022-12-16T04:36:23;94962.06;;;1.20;100.00
20077;BME280;12348;42.710;23.378;2022-12-16T04:39:04;94962.28;;;1.18;100.00
20077;BME280;12348;42.710;23.378;2022-12-16T04:41:51;94962.59;;;1.22;100.00
20077;BME280;12348;42.710;23.378;2022-12-16T04:44:35;94962.47;;;1.29;100.00
20077;BME280;12348;42.710;23.378;2022-12-16T04:47:19;94954.16;;;1.37;100.00
20077;BME280;12348;42.710;23.378;2022-12-16T04:50:04;94930.75;;;1.34;100.00
20077;BME280;12348;42.710;23.378;2022-12-16T04:52:50;94957.25;;;1.34;100.00
20077;BME280;12348;42.710;23.378;2022-12-16T04:55:34;94965.88;;;1.41;100.00
20077;BME280;12348;42.710;23.378;2022-12-16T04:58:19;94946.66;;;1.34;100.00
20077;BME280;12348;42.710;23.378;2022-12-16T05:01:03;94964.88;;;1.30;100.00
20077;BME280;12348;42.710;23.378;2022-12-16T05:03:47;94950.28;;;1.28;100.00
20077;BME280;12348;42.710;23.378;2022-12-16T05:06:32;94971.66;;;1.09;100.00
20077;BME280;12348;42.710;23.378;2022-12-16T05:09:17;94952.41;;;1.02;100.00
20077;BME280;12348;42.710;23.378;2022-12-16T05:12:01;94956.19;;;1.06;100.00
20077;BME280;12348;42.710;23.378;2022-12-16T05:14:46;94960.56;;;1.01;100.00
20077;BME280;12348;42.710;23.378;2022-12-16T05:17:30;94957.28;;;0.93;100.00
20077;BME280;12348;42.710;23.378;2022-12-16T05:20:14;94968.09;;;0.92;100.00
20077;BME280;12348;42.710;23.378;2022-12-16T05:22:58;94965.53;;;0.97;100.00
20077;BME280;12348;42.710;23.378;2022-12-16T05:25:45;94976.47;;;1.12;100.00
20077;BME280;12348;42.710;23.378;2022-12-16T05:28:29;94974.75;;;1.06;100.00
20077;BME280;12348;42.710;23.378;2022-12-16T05:31:13;94972.00;;;1.01;100.00
20077;BME280;12348;42.710;23.378;2022-12-16T05:33:58;94980.28;;;0.93;100.00
20077;BME280;12348;42.710;23.378;2022-12-16T05:36:42;94992.19;;;0.90;100.00
20077;BME280;12348;42.710;23.378;2022-12-16T05:39:26;94987.69;;;0.91;100.00
20077;BME280;12348;42.710;23.378;2022-12-16T05:42:12;95009.81;;;0.85;100.00
20077;BME280;12348;42.710;23.378;2022-12-16T05:44:56;95000.63;;;0.76;100.00
20077;BME280;12348;42.710;23.378;2022-12-16T05:47:40;95007.28;;;0.66;100.00
20077;BME280;12348;42.710;23.378;2022-12-16T05:50:25;94999.56;;;0.77;100.00
20077;BME280;12348;42.710;23.378;2022-12-16T05:53:09;94979.16;;;0.89;100.00
20077;BME280;12348;42.710;23.378;2022-12-16T05:55:53;94975.94;;;0.87;100.00
20077;BME280;12348;42.710;23.378;2022-12-16T05:58:40;94978.69;;;0.92;100.00
20077;BME280;12348;42.710;23.378;2022-12-16T06:01:24;95030.34;;;1.01;100.00
20077;BME280;12348;42.710;23.378;2022-12-16T06:04:08;95004.81;;;1.12;100.00
20077;BME280;12348;42.710;23.378;2022-12-16T06:06:53;95014.84;;;1.21;100.00
20077;BME280;12348;42.710;23.378;2022-12-16T06:09:37;95044.09;;;1.27;100.00
20077;BME280;12348;42.710;23.378;2022-12-16T06:12:20;95049.41;;;1.38;100.00
20077;BME280;12348;42.710;23.378;2022-12-16T06:15:07;95028.53;;;1.42;100.00
20077;BME280;12348;42.710;23.378;2022-12-16T06:17:51;95040.84;;;1.48;100.00
20077;BME280;12348;42.710;23.378;2022-12-16T06:20:35;95035.66;;;1.53;100.00
20077;BME280;12348;42.710;23.378;2022-12-16T06:23:20;95036.63;;;1.64;100.00
20077;BME280;12348;42.710;23.378;2022-12-16T06:26:04;95026.47;;;1.73;100.00
20077;BME280;12348;42.710;23.378;2022-12-16T06:28:49;95034.72;;;1.88;100.00
20077;BME280;12348;42.710;23.378;2022-12-16T06:31:35;95043.22;;;2.02;100.00
20077;BME280;12348;42.710;23.378;2022-12-16T06:34:19;95047.06;;;2.11;100.00
20077;BME280;12348;42.710;23.378;2022-12-16T06:37:03;95027.38;;;2.24;100.00
20077;BME280;12348;42.710;23.378;2022-12-16T06:39:48;95027.41;;;2.40;100.00
20077;BME280;12348;42.710;23.378;2022-12-16T06:42:31;95028.59;;;2.33;100.00
20077;BME280;12348;42.710;23.378;2022-12-16T06:45:15;95058.00;;;2.43;100.00
20077;BME280;12348;42.710;23.378;2022-12-16T06:47:57;95010.88;;;2.38;100.00
20077;BME280;12348;42.710;23.378;2022-12-16T06:50:38;95029.81;;;2.42;100.00
20077;BME280;12348;42.710;23.378;2022-12-16T06:53:22;95005.16;;;2.80;100.00
20077;BME280;12348;42.710;23.378;2022-12-16T06:56:06;95020.72;;;2.88;100.00
20077;BME280;12348;42.710;23.378;2022-12-16T06:58:50;95019.16;;;2.92;100.00
20077;BME280;12348;42.710;23.378;2022-12-16T07:01:34;95013.25;;;3.07;100.00
20077;BME280;12348;42.710;23.378;2022-12-16T07:04:19;95023.97;;;3.12;100.00
20077;BME280;12348;42.710;23.378;2022-12-16T07:07:03;95017.69;;;3.40;100.00
20077;BME280;12348;42.710;23.378;2022-12-16T07:09:48;95029.38;;;3.61;100.00
20077;BME280;12348;42.710;23.378;2022-12-16T07:12:32;95028.22;;;3.74;100.00
20077;BME280;12348;42.710;23.378;2022-12-16T07:15:16;95020.06;;;3.86;100.00
20077;BME280;12348;42.710;23.378;2022-12-16T07:18:01;95012.72;;;4.25;100.00
20077;BME280;12348;42.710;23.378;2022-12-16T07:20:46;95026.16;;;4.35;100.00
20077;BME280;12348;42.710;23.378;2022-12-16T07:23:30;95013.47;;;4.80;100.00
20077;BME280;12348;42.710;23.378;2022-12-16T07:26:14;95017.38;;;4.67;100.00
20077;BME280;12348;42.710;23.378;2022-12-16T07:28:58;95022.31;;;4.53;100.00
20077;BME280;12348;42.710;23.378;2022-12-16T07:31:42;95025.41;;;4.72;100.00
20077;BME280;12348;42.710;23.378;2022-12-16T07:34:26;95027.97;;;4.94;100.00
20077;BME280;12348;42.710;23.378;2022-12-16T07:37:09;95030.41;;;5.01;100.00
20077;BME280;12348;42.710;23.378;2022-12-16T07:39:54;95056.34;;;5.10;100.00
20077;BME280;12348;42.710;23.378;2022-12-16T07:42:40;95030.44;;;5.53;100.00
20077;BME280;12348;42.710;23.378;2022-12-16T07:45:24;95022.06;;;5.92;100.00
20077;BME280;12348;42.710;23.378;2022-12-16T07:48:08;95033.34;;;6.20;100.00
20077;BME280;12348;42.710;23.378;2022-12-16T07:50:52;95002.66;;;6.99;100.00
20077;BME280;12348;42.710;23.378;2022-12-16T07:53:38;95016.88;;;6.69;100.00
20077;BME280;12348;42.710;23.378;2022-12-16T07:56:22;95034.22;;;6.87;100.00
20077;BME280;12348;42.710;23.378;2022-12-16T07:59:05;95030.22;;;6.79;100.00
20077;BME280;12348;42.710;23.378;2022-12-16T08:01:49;95027.81;;;6.52;100.00
20077;BME280;12348;42.710;23.378;2022-12-16T08:04:33;95036.59;;;7.34;100.00
20077;BME280;12348;42.710;23.378;2022-12-16T08:07:17;95032.94;;;7.90;100.00
20077;BME280;12348;42.710;23.378;2022-12-16T08:10:04;95041.94;;;8.64;100.00
20077;BME280;12348;42.710;23.378;2022-12-16T08:12:48;95016.59;;;9.38;100.00
20077;BME280;12348;42.710;23.378;2022-12-16T08:15:32;95033.13;;;10.41;100.00
20077;BME280;12348;42.710;23.378;2022-12-16T08:18:16;95048.22;;;11.13;100.00
20077;BME280;12348;42.710;23.378;2022-12-16T08:21:00;95014.03;;;11.41;100.00
20077;BME280;12348;42.710;23.378;2022-12-16T08:23:44;95008.97;;;12.22;100.00
20077;BME280;12348;42.710;23.378;2022-12-16T08:26:29;95054.19;;;11.89;100.00
20077;BME280;12348;42.710;23.378;2022-12-16T08:29:14;95044.88;;;12.09;100.00
20077;BME280;12348;42.710;23.378;2022-12-16T08:31:58;95014.72;;;12.79;100.00
20077;BME280;12348;42.710;23.378;2022-12-16T08:34:42;95024.03;;;13.63;100.00
20077;BME280;12348;42.710;23.378;2022-12-16T08:37:26;95016.69;;;13.32;100.00
20077;BME280;12348;42.710;23.378;2022-12-16T08:40:11;95041.47;;;13.79;100.00
20077;BME280;12348;42.710;23.378;2022-12-16T08:42:56;95015.75;;;13.60;100.00
20077;BME280;12348;42.710;23.378;2022-12-16T08:45:41;95010.91;;;13.88;100.00
20077;BME280;12348;42.710;23.378;2022-12-16T08:48:25;94991.13;;;14.27;99.63
20077;BME280;12348;42.710;23.378;2022-12-16T08:51:10;95006.97;;;14.51;97.32
20077;BME280;12348;42.710;23.378;2022-12-16T08:53:54;94988.25;;;14.41;98.35
20077;BME280;12348;42.710;23.378;2022-12-16T08:56:38;95001.63;;;14.37;99.50
20077;BME280;12348;42.710;23.378;2022-12-16T08:59:23;94998.47;;;13.47;100.00
20077;BME280;12348;42.710;23.378;2022-12-16T09:02:08;94988.09;;;14.20;100.00
20077;BME280;12348;42.710;23.378;2022-12-16T09:04:52;94979.69;;;13.81;100.00
20077;BME280;12348;42.710;23.378;2022-12-16T09:07:36;94971.75;;;14.68;96.69
20077;BME280;12348;42.710;23.378;2022-12-16T09:10:20;94975.03;;;14.48;96.39
20077;BME280;12348;42.710;23.378;2022-12-16T09:13:06;94987.34;;;15.06;94.36
20077;BME280;12348;42.710;23.378;2022-12-16T09:15:54;94966.22;;;13.99;100.00
20077;BME280;12348;42.710;23.378;2022-12-16T09:18:38;94968.81;;;14.47;100.00
20077;BME280;12348;42.710;23.378;2022-12-16T09:21:22;94954.03;;;14.79;97.60
20077;BME280;12348;42.710;23.378;2022-12-16T09:24:07;94943.78;;;15.11;90.62
20077;BME280;12348;42.710;23.378;2022-12-16T09:26:51;94940.09;;;15.71;93.44
20077;BME280;12348;42.710;23.378;2022-12-16T09:29:35;94943.06;;;15.87;85.81
20077;BME280;12348;42.710;23.378;2022-12-16T09:32:21;94950.81;;;14.86;89.87
20077;BME280;12348;42.710;23.378;2022-12-16T09:35:05;94924.28;;;15.65;91.38
20077;BME280;12348;42.710;23.378;2022-12-16T09:37:50;94943.47;;;15.98;86.28
20077;BME280;12348;42.710;23.378;2022-12-16T09:40:37;94926.75;;;16.59;82.10
20077;BME280;12348;42.710;23.378;2022-12-16T09:43:39;94928.66;;;15.01;89.13
20077;BME280;12348;42.710;23.378;2022-12-16T09:46:34;94927.47;;;15.28;92.56
20077;BME280;12348;42.710;23.378;2022-12-16T09:49:36;94918.63;;;15.87;89.39
20077;BME280;12348;42.710;23.378;2022-12-16T09:52:24;94927.00;;;16.45;85.26
20077;BME280;12348;42.710;23.378;2022-12-16T09:55:18;94915.69;;;17.30;79.48
20077;BME280;12348;42.710;23.378;2022-12-16T09:58:06;94935.75;;;17.26;78.28
20077;BME280;12348;42.710;23.378;2022-12-16T10:00:50;94920.25;;;16.93;80.19
20077;BME280;12348;42.710;23.378;2022-12-16T10:03:37;94925.41;;;17.07;79.58
20077;BME280;12348;42.710;23.378;2022-12-16T10:06:37;94936.59;;;16.00;86.20
20077;BME280;12348;42.710;23.378;2022-12-16T10:09:28;94917.25;;;16.23;86.54
20077;BME280;12348;42.710;23.378;2022-12-16T10:12:21;94928.66;;;17.45;82.01
20077;BME280;12348;42.710;23.378;2022-12-16T10:15:16;94896.69;;;17.67;79.02
20077;BME280;12348;42.710;23.378;2022-12-16T10:18:07;94918.50;;;15.37;90.43
20077;BME280;12348;42.710;23.378;2022-12-16T10:20:55;94914.22;;;16.45;88.36
20077;BME280;12348;42.710;23.378;2022-12-16T10:23:48;94892.63;;;17.03;86.33
20077;BME280;12348;42.710;23.378;2022-12-16T10:26:42;94910.06;;;17.02;82.14
20077;BME280;12348;42.710;23.378;2022-12-16T10:29:34;94892.31;;;16.84;85.42
20077;BME280;12348;42.710;23.378;2022-12-16T10:32:25;94886.09;;;16.83;85.64
20077;BME280;12348;42.710;23.378;2022-12-16T10:35:18;94886.72;;;16.47;83.26
20077;BME280;12348;42.710;23.378;2022-12-16T10:38:05;94864.88;;;16.77;86.50
20077;BME280;12348;42.710;23.378;2022-12-16T10:40:57;94861.97;;;16.82;86.53
20077;BME280;12348;42.710;23.378;2022-12-16T10:44:19;94868.59;;;16.09;92.14
20077;BME280;12348;42.710;23.378;2022-12-16T10:47:05;94894.75;;;16.22;93.05
20077;BME280;12348;42.710;23.378;2022-12-16T10:49:52;94863.75;;;16.57;92.00
20077;BME280;12348;42.710;23.378;2022-12-16T10:52:43;94881.50;;;17.08;87.63
20077;BME280;12348;42.710;23.378;2022-12-16T10:55:36;94865.56;;;17.31;83.32
20077;BME280;12348;42.710;23.378;2022-12-16T10:58:32;94866.59;;;17.51;86.62
20077;BME280;12348;42.710;23.378;2022-12-16T11:01:20;94857.94;;;17.25;89.17
20077;BME280;12348;42.710;23.378;2022-12-16T11:04:29;94844.81;;;17.88;84.87
20077;BME280;12348;42.710;23.378;2022-12-16T11:07:30;94871.06;;;18.33;81.72
20077;BME280;12348;42.710;23.378;2022-12-16T11:10:33;94869.88;;;18.06;83.26
20077;BME280;12348;42.710;23.378;2022-12-16T11:13:22;94855.53;;;18.61;83.95
20077;BME280;12348;42.710;23.378;2022-12-16T11:16:14;94857.38;;;18.17;85.35
20077;BME280;12348;42.710;23.378;2022-12-16T11:18:59;94863.91;;;17.76;88.64
20077;BME280;12348;42.710;23.378;2022-12-16T11:21:44;94859.31;;;18.16;85.32
20077;BME280;12348;42.710;23.378;2022-12-16T11:24:29;94860.53;;;18.59;83.94
20077;BME280;12348;42.710;23.378;2022-12-16T11:27:20;94841.44;;;18.72;83.93
20077;BME280;12348;42.710;23.378;2022-12-16T11:30:15;94851.22;;;18.60;83.20
20077;BME280;12348;42.710;23.378;2022-12-16T11:33:05;94831.38;;;18.20;87.53
20077;BME280;12348;42.710;23.378;2022-12-16T11:36:00;94859.75;;;18.87;83.37
20077;BME280;12348;42.710;23.378;2022-12-16T11:38:48;94840.41;;;18.92;83.39
20077;BME280;12348;42.710;23.378;2022-12-16T11:41:37;94819.25;;;18.89;85.45
20077;BME280;12348;42.710;23.378;2022-12-16T11:44:25;94843.00;;;17.67;93.11
20077;BME280;12348;42.710;23.378;2022-12-16T11:47:17;94836.16;;;18.10;92.71
20077;BME280;12348;42.710;23.378;2022-12-16T11:50:09;94849.38;;;17.59;94.57
20077;BME280;12348;42.710;23.378;2022-12-16T11:52:55;94807.38;;;17.36;96.08
20077;BME280;12348;42.710;23.378;2022-12-16T11:55:41;94827.25;;;16.45;98.15
20077;BME280;12348;42.710;23.378;2022-12-16T11:58:32;94820.47;;;15.38;100.00
20077;BME280;12348;42.710;23.378;2022-12-16T12:01:22;94830.66;;;15.50;100.00
20077;BME280;12348;42.710;23.378;2022-12-16T12:04:08;94818.66;;;15.21;100.00
20077;BME280;12348;42.710;23.378;2022-12-16T12:07:14;94824.53;;;15.53;100.00
20077;BME280;12348;42.710;23.378;2022-12-16T12:10:07;94829.97;;;15.53;100.00
20077;BME280;12348;42.710;23.378;2022-12-16T12:12:57;94808.06;;;15.67;100.00
20077;BME280;12348;42.710;23.378;2022-12-16T12:15:50;94783.84;;;15.23;100.00
20077;BME280;12348;42.710;23.378;2022-12-16T12:18:44;94805.41;;;15.79;100.00
20077;BME280;12348;42.710;23.378;2022-12-16T12:21:36;94804.44;;;16.05;100.00
20077;BME280;12348;42.710;23.378;2022-12-16T12:24:37;94817.44;;;15.99;100.00
20077;BME280;12348;42.710;23.378;2022-12-16T12:27:28;94806.50;;;16.41;100.00
20077;BME280;12348;42.710;23.378;2022-12-16T12:30:15;94812.41;;;16.43;100.00
20077;BME280;12348;42.710;23.378;2022-12-16T12:33:14;94787.63;;;16.44;100.00
20077;BME280;12348;42.710;23.378;2022-12-16T12:36:06;94780.91;;;16.75;100.00
20077;BME280;12348;42.710;23.378;2022-12-16T12:39:01;94814.75;;;15.90;100.00
20077;BME280;12348;42.710;23.378;2022-12-16T12:41:57;94789.22;;;15.62;100.00
20077;BME280;12348;42.710;23.378;2022-12-16T12:44:53;94763.16;;;15.90;100.00
20077;BME280;12348;42.710;23.378;2022-12-16T12:47:45;94805.94;;;15.43;100.00
20077;BME280;12348;42.710;23.378;2022-12-16T12:50:38;94771.69;;;15.30;100.00
20077;BME280;12348;42.710;23.378;2022-12-16T12:53:33;94794.78;;;14.68;100.00
20077;BME280;12348;42.710;23.378;2022-12-16T12:56:29;94801.16;;;15.10;100.00
20077;BME280;12348;42.710;23.378;2022-12-16T12:59:22;94785.44;;;14.95;100.00
20077;BME280;12348;42.710;23.378;2022-12-16T13:02:13;94807.81;;;14.74;100.00
20077;BME280;12348;42.710;23.378;2022-12-16T13:04:59;94799.38;;;14.76;100.00
20077;BME280;12348;42.710;23.378;2022-12-16T13:07:44;94798.34;;;14.98;100.00
20077;BME280;12348;42.710;23.378;2022-12-16T13:10:36;94780.31;;;14.93;100.00
20077;BME280;12348;42.710;23.378;2022-12-16T13:13:32;94779.91;;;14.83;100.00
20077;BME280;12348;42.710;23.378;2022-12-16T13:19:52;94786.38;;;14.35;100.00
20077;BME280;12348;42.710;23.378;2022-12-16T13:22:36;94787.34;;;14.21;100.00
20077;BME280;12348;42.710;23.378;2022-12-16T13:25:41;94779.22;;;14.30;100.00
20077;BME280;12348;42.710;23.378;2022-12-16T13:28:28;94793.38;;;14.62;100.00
20077;BME280;12348;42.710;23.378;2022-12-16T13:31:15;94818.53;;;14.45;100.00
20077;BME280;12348;42.710;23.378;2022-12-16T13:34:04;94769.00;;;14.36;100.00
20077;BME280;12348;42.710;23.378;2022-12-16T13:37:01;94779.06;;;14.18;100.00
20077;BME280;12348;42.710;23.378;2022-12-16T13:39:59;94830.19;;;14.45;100.00
20077;BME280;12348;42.710;23.378;2022-12-16T13:42:53;94792.94;;;14.25;100.00
20077;BME280;12348;42.710;23.378;2022-12-16T13:45:42;94796.28;;;13.70;100.00
20077;BME280;12348;42.710;23.378;2022-12-16T13:48:38;94807.44;;;13.68;100.00
20077;BME280;12348;42.710;23.378;2022-12-16T13:55:11;94809.00;;;13.69;100.00
20077;BME280;12348;42.710;23.378;2022-12-16T13:58:01;94814.59;;;13.81;100.00
20077;BME280;12348;42.710;23.378;2022-12-16T14:00:54;94827.78;;;13.66;100.00
20077;BME280;12348;42.710;23.378;2022-12-16T14:03:43;94835.91;;;13.57;100.00
20077;BME280;12348;42.710;23.378;2022-12-16T14:06:29;94819.66;;;13.48;100.00
20077;BME280;12348;42.710;23.378;2022-12-16T14:09:28;94832.97;;;13.36;100.00
20077;BME280;12348;42.710;23.378;2022-12-16T14:12:21;94842.53;;;13.33;100.00